Terminal Aerodrome Forecast
Issued by NWS

Home | Current Version | Previous Version | Text Only | Print | Product List | Glossary On
Versions: 1 2 3 4 5 6 7 8 9 10 11 12 13 14 15 16 17 18
000
FTUS43 KIND 111123
TAFLAF
TAF
KLAF 111123Z 1112/1212 VRB03KT P6SM BKN070
     FM111600 19007KT P6SM BKN130
     FM120100 27006KT P6SM BKN110
     FM120500 32013G22KT P6SM OVC025
     FM120900 32016G26KT P6SM BKN045
     FM121100 32014G25KT P6SM BKN080
      AMD LTD TO CLD VIS AND WIND TIL 111400=

USA.gov is the U.S. government's official web portal to all federal, state and local government web resources and services.